Time;durP1;ratioP1;P1;durP2;ratioP2;P2;SDS_P1;SDS_P2;PMS_P1;PMS_P2;Temp;Humidity;BMP_temperature;BMP_pressure;BME280_temperature;BME280_humidity;BME280_pressure;Samples;Min_cycle;Max_cycle;Signal;HPM_P1;HPM_P2
2022/01/18 00:01:00;;;;;;;3.20;1.33;;;-1.10;99.90;;;;;;4126402;28;20832;-59
2022/01/18 00:03:01;;;;;;;5.50;1.43;;;-1.10;99.90;;;;;;4126215;28;20269;-60
2022/01/18 00:05:03;;;;;;;3.73;1.30;;;-1.00;99.90;;;;;;4141897;28;20279;-59
2022/01/18 00:07:04;;;;;;;5.23;2.13;;;-1.00;99.90;;;;;;4142662;28;20271;-60
2022/01/18 00:09:06;;;;;;;8.13;1.23;;;-1.00;99.90;;;;;;4141986;28;20291;-64
2022/01/18 00:11:07;;;;;;;2.87;1.30;;;-0.90;99.90;;;;;;4143010;28;20284;-62
2022/01/18 00:13:23;;;;;;;2.63;1.50;;;-0.90;99.90;;;;;;4141967;28;20272;-59
2022/01/18 00:17:40;;;;;;;5.70;1.27;;;-0.90;99.90;;;;;;4141902;28;20687;-59
2022/01/18 00:19:45;;;;;;;7.70;1.87;;;-0.90;99.90;;;;;;4126437;28;20311;-63
2022/01/18 00:22:07;;;;;;;5.23;1.73;;;-0.90;99.90;;;;;;4125169;28;20680;-59
2022/01/18 00:24:08;;;;;;;3.07;1.47;;;-0.80;99.90;;;;;;4126236;28;20276;-61
2022/01/18 00:26:12;;;;;;;3.77;1.20;;;-0.80;99.90;;;;;;4128326;28;20775;-59
2022/01/18 00:28:14;;;;;;;5.03;2.23;;;-0.80;99.90;;;;;;4142815;28;21005;-60
2022/01/18 00:32:34;;;;;;;4.87;1.40;;;-0.70;99.90;;;;;;4142357;28;20361;-57
2022/01/18 00:34:40;;;;;;;2.80;1.23;;;-0.70;99.90;;;;;;4141958;28;20691;-60
2022/01/18 00:38:52;;;;;;;4.68;1.27;;;-0.80;99.90;;;;;;4141378;28;20329;-61
2022/01/18 00:40:53;;;;;;;6.03;1.70;;;-0.80;99.90;;;;;;4141834;28;20037;-58
2022/01/18 00:42:54;;;;;;;6.00;1.30;;;-0.70;99.90;;;;;;4141131;28;20337;-60
2022/01/18 00:44:55;;;;;;;5.47;1.30;;;-0.80;99.90;;;;;;4141662;28;21176;-59
2022/01/18 00:46:56;;;;;;;4.23;1.47;;;-0.80;99.90;;;;;;4140344;28;20613;-59
2022/01/18 00:49:00;;;;;;;4.77;1.53;;;-0.80;99.90;;;;;;4141618;28;20272;-59
2022/01/18 00:51:04;;;;;;;4.33;1.10;;;-0.70;99.90;;;;;;4140815;28;20678;-63
2022/01/18 00:53:10;;;;;;;4.43;1.30;;;-0.70;99.90;;;;;;4141191;28;20292;-59
2022/01/18 00:55:14;;;;;;;5.07;1.10;;;-0.70;99.90;;;;;;4141560;28;20345;-58
2022/01/18 00:57:15;;;;;;;2.63;1.00;;;-0.70;99.90;;;;;;4141882;28;20322;-61
2022/01/18 00:59:16;;;;;;;2.57;1.13;;;-0.70;99.90;;;;;;4140069;28;20271;-60
2022/01/18 01:01:19;;;;;;;6.77;2.30;;;-0.70;99.90;;;;;;4141667;28;20667;-66
2022/01/18 01:03:23;;;;;;;2.23;0.67;;;-0.70;99.90;;;;;;4139865;28;20283;-58
2022/01/18 01:05:24;;;;;;;4.17;1.30;;;-0.70;99.90;;;;;;4141411;28;20264;-61
2022/01/18 01:07:25;;;;;;;3.40;1.00;;;-0.70;99.90;;;;;;4142047;28;20279;-58
2022/01/18 01:09:27;;;;;;;3.30;1.67;;;-0.70;99.90;;;;;;4140729;28;20678;-59
2022/01/18 01:11:28;;;;;;;3.07;0.87;;;-0.80;99.90;;;;;;4141858;28;20293;-60
2022/01/18 01:13:31;;;;;;;3.07;0.87;;;-0.70;99.90;;;;;;4139955;28;20279;-61
2022/01/18 01:15:38;;;;;;;3.23;1.10;;;-0.70;99.90;;;;;;4141804;28;20275;-61
2022/01/18 01:18:06;;;;;;;3.63;0.90;;;-0.70;99.90;;;;;;4141285;28;20267;-60
2022/01/18 01:34:50;;;;;;;3.73;1.20;;;-0.80;99.90;;;;;;4141190;28;20540;-59
2022/01/18 01:37:14;;;;;;;3.57;1.20;;;-0.80;99.90;;;;;;4139076;28;20686;-60
2022/01/18 01:46:05;;;;;;;3.87;1.70;;;-0.80;99.90;;;;;;4141025;28;20313;-61
2022/01/18 01:48:08;;;;;;;2.93;1.00;;;-0.80;99.90;;;;;;4140379;28;20264;-59
2022/01/18 01:50:18;;;;;;;2.93;1.03;;;-0.80;99.90;;;;;;4141403;28;20279;-60
2022/01/18 01:52:21;;;;;;;2.70;1.07;;;-0.80;99.90;;;;;;4140179;28;20299;-55
2022/01/18 01:54:22;;;;;;;2.50;1.00;;;-0.90;99.90;;;;;;4126263;28;20346;-60
2022/01/18 01:56:25;;;;;;;2.23;1.10;;;-0.90;99.90;;;;;;4155712;28;20282;-59
2022/01/18 01:58:27;;;;;;;4.20;0.97;;;-0.90;99.90;;;;;;4124711;28;21046;-60
2022/01/18 02:00:28;;;;;;;3.50;0.97;;;-0.90;99.90;;;;;;4128540;28;20301;-59
2022/01/18 02:02:32;;;;;;;4.77;1.10;;;-0.90;99.90;;;;;;4140720;28;20288;-59
2022/01/18 02:04:34;;;;;;;2.57;0.90;;;-1.00;99.90;;;;;;4140610;28;20260;-60
2022/01/18 02:06:35;;;;;;;3.40;1.00;;;-0.90;99.90;;;;;;4140733;28;20329;-59
2022/01/18 02:08:36;;;;;;;4.23;0.93;;;-0.90;99.90;;;;;;4140513;28;20678;-59
2022/01/18 02:10:41;;;;;;;4.50;0.90;;;-0.90;99.90;;;;;;4127346;28;20276;-56
2022/01/18 02:12:42;;;;;;;4.87;1.70;;;-0.90;99.90;;;;;;4124323;28;20342;-60
2022/01/18 02:14:48;;;;;;;4.93;1.03;;;-0.90;99.90;;;;;;4124276;28;20272;-59
2022/01/18 02:21:48;;;;;;;4.17;0.90;;;-0.90;99.90;;;;;;4124108;28;20442;-61
2022/01/18 02:23:49;;;;;;;2.13;1.50;;;-0.90;99.90;;;;;;4123903;28;20362;-61
2022/01/18 02:25:50;;;;;;;3.20;1.00;;;-0.90;99.90;;;;;;4136444;28;20498;-57
2022/01/18 02:27:51;;;;;;;4.40;1.10;;;-0.90;99.90;;;;;;4138942;28;20428;-62
2022/01/18 02:29:52;;;;;;;5.17;1.70;;;-0.90;99.90;;;;;;4140490;28;20298;-60
2022/01/18 02:31:57;;;;;;;7.47;1.90;;;-0.90;99.90;;;;;;4124850;28;20300;-59
2022/01/18 02:34:10;;;;;;;3.93;1.23;;;-1.00;99.90;;;;;;4133157;28;20295;-62
2022/01/18 02:36:11;;;;;;;4.80;1.37;;;-1.00;99.90;;;;;;4132813;28;20327;-59
2022/01/18 02:38:13;;;;;;;4.70;1.00;;;-1.00;99.90;;;;;;4124480;28;20327;-60
2022/01/18 02:40:17;;;;;;;2.87;1.20;;;-1.10;99.90;;;;;;4122807;28;20264;-57
2022/01/18 02:42:27;;;;;;;4.63;1.00;;;-1.10;99.90;;;;;;4124762;28;20272;-66
2022/01/18 02:44:29;;;;;;;4.03;1.30;;;-1.10;99.90;;;;;;4130510;28;20275;-65
2022/01/18 02:46:31;;;;;;;3.53;1.10;;;-1.10;99.90;;;;;;4140224;28;20341;-63
2022/01/18 02:48:32;;;;;;;4.83;0.83;;;-1.10;99.90;;;;;;4126004;28;20364;-62
2022/01/18 02:50:33;;;;;;;2.87;1.03;;;-1.10;99.90;;;;;;4131692;28;20287;-66
2022/01/18 02:52:34;;;;;;;6.00;0.87;;;-1.10;99.90;;;;;;4139822;28;20295;-59
2022/01/18 02:54:35;;;;;;;4.33;1.30;;;-1.10;99.90;;;;;;4140391;28;20306;-61
2022/01/18 02:56:56;;;;;;;4.17;1.47;;;-1.10;99.90;;;;;;4140045;28;20263;-62
2022/01/18 02:59:19;;;;;;;3.20;1.10;;;-1.20;99.90;;;;;;4140030;28;20298;-59
2022/01/18 03:03:43;;;;;;;7.90;1.03;;;-1.20;99.90;;;;;;4139735;28;20350;-63
2022/01/18 03:05:45;;;;;;;4.60;1.40;;;-1.20;99.90;;;;;;4139508;28;20326;-64
2022/01/18 03:07:46;;;;;;;4.57;1.33;;;-1.20;99.90;;;;;;4140181;28;20755;-62
2022/01/18 03:09:47;;;;;;;2.27;1.00;;;-1.20;99.90;;;;;;4139607;28;20263;-58
2022/01/18 03:11:51;;;;;;;8.77;2.73;;;-1.20;99.90;;;;;;4140079;28;20259;-61
2022/01/18 03:13:52;;;;;;;4.77;0.97;;;-1.20;99.90;;;;;;4138836;28;20326;-65
2022/01/18 03:15:53;;;;;;;5.07;1.37;;;-1.30;99.90;;;;;;4139846;28;21198;-60
2022/01/18 03:17:55;;;;;;;6.40;1.20;;;-1.30;99.90;;;;;;4139441;28;20329;-61
2022/01/18 03:19:56;;;;;;;5.37;1.87;;;-1.30;99.90;;;;;;4139660;28;20267;-62
2022/01/18 03:21:58;;;;;;;3.10;1.00;;;-1.30;99.90;;;;;;4139661;28;20337;-59
2022/01/18 03:24:13;;;;;;;6.80;1.57;;;-1.20;99.90;;;;;;4137197;28;20291;-60
2022/01/18 03:26:16;;;;;;;4.73;1.60;;;-1.20;99.90;;;;;;4140016;28;20349;-60
2022/01/18 03:28:20;;;;;;;8.17;1.30;;;-1.30;99.90;;;;;;4139152;28;20297;-63
2022/01/18 03:30:21;;;;;;;4.33;1.70;;;-1.30;99.90;;;;;;4137145;28;20267;-61
2022/01/18 03:32:23;;;;;;;7.57;1.77;;;-1.30;99.90;;;;;;4122879;28;20722;-63
2022/01/18 03:34:24;;;;;;;3.07;1.30;;;-1.30;99.90;;;;;;4123732;28;20338;-60
2022/01/18 03:36:25;;;;;;;4.17;0.80;;;-1.30;99.90;;;;;;4122543;28;20272;-60
2022/01/18 03:38:30;;;;;;;3.33;1.27;;;-1.30;99.90;;;;;;4123323;28;20331;-62
2022/01/18 03:40:31;;;;;;;4.27;1.00;;;-1.30;99.90;;;;;;4122881;28;20276;-63
2022/01/18 03:42:38;;;;;;;5.97;1.57;;;-1.30;99.90;;;;;;4124224;28;20319;-61
2022/01/18 03:44:39;;;;;;;6.67;1.30;;;-1.30;99.90;;;;;;4123059;28;20322;-61
2022/01/18 03:46:40;;;;;;;4.43;1.57;;;-1.30;99.90;;;;;;4136239;28;20839;-63
2022/01/18 03:48:49;;;;;;;6.50;1.63;;;-1.30;99.90;;;;;;4139268;28;20315;-59
2022/01/18 03:50:51;;;;;;;4.23;1.30;;;-1.30;99.90;;;;;;4139275;28;20295;-66
2022/01/18 03:52:52;;;;;;;15.53;2.30;;;-1.30;99.90;;;;;;4138762;28;20365;-60
2022/01/18 03:54:54;;;;;;;5.87;1.07;;;-1.30;99.90;;;;;;4139192;28;20337;-61
2022/01/18 03:56:55;;;;;;;5.37;1.10;;;-1.40;99.90;;;;;;4139923;28;20283;-59
2022/01/18 03:58:56;;;;;;;4.70;1.20;;;-1.40;99.90;;;;;;4139447;28;20356;-60
2022/01/18 04:00:57;;;;;;;3.53;1.00;;;-1.40;99.90;;;;;;4135964;28;20752;-63
2022/01/18 04:02:59;;;;;;;4.10;1.10;;;-1.40;99.90;;;;;;4138849;28;20322;-59
2022/01/18 04:05:01;;;;;;;6.57;1.33;;;-1.40;99.90;;;;;;4125979;28;20268;-65
2022/01/18 04:07:03;;;;;;;4.17;1.07;;;-1.40;99.90;;;;;;4122856;28;20280;-61
2022/01/18 04:09:04;;;;;;;5.50;1.10;;;-1.40;99.90;;;;;;4123806;28;20857;-59
2022/01/18 04:11:05;;;;;;;3.93;1.10;;;-1.50;99.90;;;;;;4122999;28;20814;-65
2022/01/18 04:13:07;;;;;;;2.87;0.93;;;-1.50;99.90;;;;;;4126158;28;20365;-63
2022/01/18 04:15:11;;;;;;;4.37;1.37;;;-1.50;99.90;;;;;;4138465;28;20321;-60
2022/01/18 04:17:30;;;;;;;7.10;1.03;;;-1.50;99.90;;;;;;4142783;28;20332;-59
2022/01/18 04:30:32;;;;;;;7.50;1.50;;;-1.60;99.90;;;;;;4129876;28;20346;-60
2022/01/18 04:32:33;;;;;;;11.63;4.70;;;-1.60;99.90;;;;;;4140683;28;20326;-67
2022/01/18 04:34:36;;;;;;;12.80;5.23;;;-1.60;99.90;;;;;;4126008;28;20276;-59
2022/01/18 04:36:37;;;;;;;29.10;11.30;;;-1.70;99.90;;;;;;4125236;28;20276;-58
2022/01/18 04:38:39;;;;;;;21.47;8.20;;;-1.70;99.90;;;;;;4125490;28;20319;-60
2022/01/18 04:40:44;;;;;;;8.50;3.83;;;-1.70;99.90;;;;;;4125274;28;20350;-60
2022/01/18 04:43:04;;;;;;;6.37;3.50;;;-1.70;99.90;;;;;;4129646;28;20287;-60
2022/01/18 04:49:45;;;;;;;7.80;2.83;;;-1.80;99.90;;;;;;4124881;28;20104;-59
2022/01/18 04:51:49;;;;;;;4.27;2.17;;;-1.80;99.90;;;;;;4126850;28;20335;-64
2022/01/18 04:53:55;;;;;;;5.60;2.20;;;-1.80;99.90;;;;;;4124449;28;20303;-65
2022/01/18 04:55:57;;;;;;;4.53;1.90;;;-1.80;99.90;;;;;;4125946;28;20347;-59
2022/01/18 04:58:01;;;;;;;7.73;1.90;;;-1.70;99.90;;;;;;4125007;28;20280;-60
2022/01/18 05:00:02;;;;;;;7.70;2.80;;;-1.70;99.90;;;;;;4125535;28;20256;-66
2022/01/18 05:02:06;;;;;;;5.87;2.07;;;-1.70;99.90;;;;;;4125470;28;20283;-61
2022/01/18 05:04:08;;;;;;;13.83;5.17;;;-1.80;99.90;;;;;;4136627;28;20321;-60
2022/01/18 05:06:12;;;;;;;12.60;4.43;;;-1.80;99.90;;;;;;4130995;28;20288;-62
2022/01/18 05:08:14;;;;;;;13.00;3.87;;;-1.80;99.90;;;;;;4124444;28;20376;-63
2022/01/18 05:10:19;;;;;;;9.00;3.33;;;-1.80;99.90;;;;;;4124656;28;20340;-62
2022/01/18 05:12:36;;;;;;;9.77;3.33;;;-1.80;99.90;;;;;;4124780;28;20337;-63
2022/01/18 05:14:37;;;;;;;10.60;4.03;;;-1.80;99.90;;;;;;4124880;28;20672;-59
2022/01/18 05:19:07;;;;;;;6.50;2.53;;;-1.80;99.90;;;;;;4141406;28;20310;-61
2022/01/18 05:21:24;;;;;;;8.00;3.03;;;-1.80;99.90;;;;;;4139935;28;20255;-64
2022/01/18 05:23:25;;;;;;;8.33;2.90;;;-1.70;99.90;;;;;;4124395;28;20307;-61
2022/01/18 05:25:28;;;;;;;5.93;2.77;;;-1.80;99.90;;;;;;4124347;28;20326;-59
2022/01/18 05:27:29;;;;;;;5.13;2.60;;;-1.80;99.90;;;;;;4124472;28;20268;-63
2022/01/18 05:29:32;;;;;;;9.43;2.83;;;-1.70;99.90;;;;;;4130560;28;20271;-62
2022/01/18 05:31:33;;;;;;;5.40;2.80;;;-1.70;99.90;;;;;;4140457;28;20310;-60
2022/01/18 05:33:34;;;;;;;5.87;2.30;;;-1.70;99.90;;;;;;4139970;28;20324;-66
2022/01/18 05:35:36;;;;;;;5.47;1.93;;;-1.70;99.90;;;;;;4140858;28;20283;-62
2022/01/18 05:37:37;;;;;;;6.20;2.90;;;-1.70;99.90;;;;;;4140133;28;20283;-61
2022/01/18 05:39:38;;;;;;;6.60;3.03;;;-1.70;99.90;;;;;;4137031;28;20283;-61
2022/01/18 05:41:41;;;;;;;6.50;2.57;;;-1.70;99.90;;;;;;4136002;28;20271;-60
2022/01/18 05:43:43;;;;;;;8.07;2.50;;;-1.60;99.90;;;;;;4140285;28;20350;-57
2022/01/18 05:45:44;;;;;;;4.13;1.90;;;-1.70;99.90;;;;;;4134008;28;20317;-61
2022/01/18 05:47:45;;;;;;;7.40;3.03;;;-1.70;99.90;;;;;;4135688;28;20259;-60
2022/01/18 05:49:46;;;;;;;10.23;3.13;;;-1.70;99.90;;;;;;4139173;28;20687;-59
2022/01/18 05:51:48;;;;;;;8.93;3.77;;;-1.70;99.90;;;;;;4138178;28;20322;-57
2022/01/18 05:53:49;;;;;;;10.90;4.37;;;-1.70;99.90;;;;;;4129699;28;20718;-56
2022/01/18 05:55:50;;;;;;;6.53;2.97;;;-1.70;99.90;;;;;;4139414;28;20299;-58
2022/01/18 05:57:51;;;;;;;4.80;2.30;;;-1.70;99.90;;;;;;4140355;28;20271;-58
2022/01/18 05:59:54;;;;;;;5.50;2.57;;;-1.80;99.90;;;;;;4132771;28;20780;-60
2022/01/18 06:02:02;;;;;;;7.17;2.33;;;-1.80;99.90;;;;;;4124347;28;20284;-54
2022/01/18 06:04:17;;;;;;;5.40;2.53;;;-1.80;99.90;;;;;;4123664;28;20260;-58
2022/01/18 06:08:38;;;;;;;16.73;5.03;;;-1.80;99.90;;;;;;4136428;28;20279;-57
2022/01/18 06:10:40;;;;;;;11.00;4.27;;;-1.70;99.90;;;;;;4140095;28;20648;-57
2022/01/18 06:12:41;;;;;;;9.40;3.27;;;-1.70;99.90;;;;;;4140203;28;20271;-57
2022/01/18 06:14:43;;;;;;;9.23;3.13;;;-1.70;99.90;;;;;;4138616;28;20282;-59
2022/01/18 06:16:45;;;;;;;4.10;2.53;;;-1.70;99.90;;;;;;4125836;28;20280;-59
2022/01/18 06:18:46;;;;;;;11.40;3.47;;;-1.70;99.90;;;;;;4123495;28;20280;-59
2022/01/18 06:20:49;;;;;;;9.07;2.37;;;-1.70;99.90;;;;;;4123239;28;20380;-58
2022/01/18 06:22:53;;;;;;;6.13;2.47;;;-1.70;99.90;;;;;;4128155;28;20283;-60
2022/01/18 06:24:54;;;;;;;9.27;2.40;;;-1.70;99.90;;;;;;4138282;28;20283;-58
2022/01/18 06:26:55;;;;;;;11.13;3.90;;;-1.60;99.90;;;;;;4135521;28;20271;-58
2022/01/18 06:28:58;;;;;;;7.27;2.67;;;-1.40;99.90;;;;;;4136395;28;20286;-60
2022/01/18 06:30:59;;;;;;;8.37;2.87;;;-1.10;99.90;;;;;;4138936;28;20283;-59
2022/01/18 06:33:00;;;;;;;8.97;3.17;;;-0.90;99.90;;;;;;4139993;28;20306;-61
2022/01/18 06:35:05;;;;;;;7.10;3.67;;;-0.80;99.90;;;;;;4140263;28;20309;-56
2022/01/18 06:37:07;;;;;;;11.20;4.30;;;-0.70;99.90;;;;;;4140477;28;20337;-58
2022/01/18 06:39:08;;;;;;;7.20;2.80;;;-0.50;99.90;;;;;;4125880;28;20339;-58
2022/01/18 06:41:12;;;;;;;7.97;3.70;;;-0.40;99.90;;;;;;4134607;28;20609;-60
2022/01/18 06:43:13;;;;;;;9.67;3.20;;;-0.50;99.90;;;;;;4140643;28;20805;-60
2022/01/18 06:45:15;;;;;;;11.63;3.47;;;-0.40;99.90;;;;;;4139692;28;20267;-57
2022/01/18 06:47:16;;;;;;;5.33;2.83;;;-0.30;99.90;;;;;;4138265;28;20333;-61
2022/01/18 06:49:17;;;;;;;8.27;3.00;;;-0.40;99.90;;;;;;4139162;28;20303;-59
2022/01/18 06:51:18;;;;;;;5.40;2.57;;;-0.50;99.90;;;;;;4138298;28;20275;-58
2022/01/18 06:53:20;;;;;;;5.50;2.60;;;-0.70;99.90;;;;;;4138965;28;20283;-59
2022/01/18 06:55:21;;;;;;;9.20;2.53;;;-0.90;99.90;;;;;;4135852;28;20353;-60
2022/01/18 06:57:23;;;;;;;5.63;2.53;;;-1.00;99.90;;;;;;4139143;28;20291;-58
2022/01/18 06:59:24;;;;;;;5.90;2.07;;;-1.00;99.90;;;;;;4138543;28;20326;-57
2022/01/18 07:01:25;;;;;;;12.87;2.67;;;-1.10;99.90;;;;;;4138576;28;20333;-61
2022/01/18 07:03:26;;;;;;;3.47;2.27;;;-1.10;99.90;;;;;;4138976;28;20267;-59
2022/01/18 07:05:27;;;;;;;11.07;4.20;;;-1.10;99.90;;;;;;4139216;28;20310;-56
2022/01/18 07:07:28;;;;;;;15.23;4.80;;;-1.10;99.90;;;;;;4139147;28;20306;-59
2022/01/18 07:09:30;;;;;;;16.47;6.77;;;-1.10;99.90;;;;;;4139105;28;20318;-58
2022/01/18 07:11:31;;;;;;;32.57;12.73;;;-1.10;99.90;;;;;;4139075;28;20312;-57
2022/01/18 07:13:32;;;;;;;19.27;6.57;;;-1.10;99.90;;;;;;4138790;28;20813;-59
2022/01/18 07:15:33;;;;;;;11.23;4.93;;;-1.10;99.90;;;;;;4138718;28;20268;-62
2022/01/18 07:17:37;;;;;;;14.77;5.37;;;-1.10;99.90;;;;;;4138829;28;20367;-58
2022/01/18 07:19:39;;;;;;;23.63;9.60;;;-1.10;99.90;;;;;;4139579;28;20306;-60
2022/01/18 07:21:40;;;;;;;12.63;4.50;;;-1.10;99.90;;;;;;4138802;28;20329;-59
2022/01/18 07:23:41;;;;;;;16.17;5.27;;;-1.10;99.90;;;;;;4134317;28;20417;-59
2022/01/18 07:25:45;;;;;;;12.53;3.97;;;-1.00;99.90;;;;;;4122621;28;20272;-60
2022/01/18 07:27:47;;;;;;;11.77;4.93;;;-1.10;99.90;;;;;;4122639;28;20370;-60
2022/01/18 07:29:49;;;;;;;15.00;3.23;;;-1.00;99.90;;;;;;4123480;28;20314;-59
2022/01/18 07:31:50;;;;;;;13.93;4.37;;;-1.00;99.90;;;;;;4139700;28;20341;-60
2022/01/18 07:33:51;;;;;;;12.03;4.10;;;-1.10;99.90;;;;;;4138465;28;20299;-63
2022/01/18 07:35:55;;;;;;;8.73;3.73;;;-1.10;99.90;;;;;;4129334;28;20340;-59
2022/01/18 07:37:56;;;;;;;7.83;3.13;;;-1.00;99.90;;;;;;4143481;28;20275;-56
2022/01/18 07:39:57;;;;;;;13.13;4.83;;;-1.00;99.90;;;;;;4154901;28;20760;-60
2022/01/18 07:41:59;;;;;;;9.33;3.27;;;-1.00;99.90;;;;;;4142333;28;20275;-52
2022/01/18 07:44:00;;;;;;;10.13;3.17;;;-1.00;99.90;;;;;;4139639;28;20279;-60
2022/01/18 07:46:01;;;;;;;6.40;2.17;;;-1.00;99.90;;;;;;4138293;28;20759;-59
2022/01/18 07:48:03;;;;;;;10.97;2.90;;;-1.00;99.90;;;;;;4138676;28;20313;-55
2022/01/18 07:50:04;;;;;;;8.53;3.77;;;-1.00;99.90;;;;;;4129795;28;20362;-56
2022/01/18 07:52:05;;;;;;;6.53;2.87;;;-1.00;99.90;;;;;;4125214;28;20272;-56
2022/01/18 07:54:07;;;;;;;8.07;1.87;;;-1.00;99.90;;;;;;4135272;28;20641;-56
2022/01/18 07:56:09;;;;;;;9.30;2.47;;;-1.00;99.90;;;;;;4141106;28;20298;-54
2022/01/18 07:58:10;;;;;;;8.20;2.77;;;-1.00;99.90;;;;;;4142442;28;20671;-58
2022/01/18 08:00:15;;;;;;;7.10;2.07;;;-1.00;99.90;;;;;;4139516;28;20291;-55
2022/01/18 08:02:17;;;;;;;7.77;2.00;;;-1.00;99.90;;;;;;4134001;28;20592;-56
2022/01/18 08:04:18;;;;;;;6.93;2.00;;;-1.00;99.90;;;;;;4141272;28;20813;-56
2022/01/18 08:06:19;;;;;;;7.77;1.97;;;-1.00;99.90;;;;;;4139691;28;20554;-57
2022/01/18 08:08:21;;;;;;;6.80;3.03;;;-1.00;99.90;;;;;;4138986;28;20306;-55
2022/01/18 08:10:29;;;;;;;4.87;1.93;;;-1.00;99.90;;;;;;4139502;28;20275;-58
2022/01/18 08:12:31;;;;;;;4.37;2.50;;;-1.00;99.90;;;;;;4141886;28;20276;-59
2022/01/18 08:14:33;;;;;;;7.77;2.30;;;-1.10;99.90;;;;;;4141674;28;20287;-57
2022/01/18 08:16:47;;;;;;;6.23;3.03;;;-1.10;99.90;;;;;;4137126;28;20333;-55
2022/01/18 08:18:52;;;;;;;4.97;2.23;;;-1.10;99.90;;;;;;4141171;28;20276;-57
2022/01/18 08:20:53;;;;;;;6.97;2.43;;;-1.20;99.90;;;;;;4125768;28;20322;-59
2022/01/18 08:22:54;;;;;;;4.67;2.63;;;-1.20;99.90;;;;;;4125480;28;20339;-59
2022/01/18 08:24:55;;;;;;;9.80;3.23;;;-1.20;99.90;;;;;;4125481;28;20339;-60
2022/01/18 08:26:57;;;;;;;8.07;2.70;;;-1.30;99.90;;;;;;4131611;28;20329;-58
2022/01/18 08:28:58;;;;;;;5.73;2.33;;;-1.20;99.90;;;;;;4142371;28;20766;-59
2022/01/18 08:30:59;;;;;;;5.83;2.43;;;-1.20;99.90;;;;;;4139337;28;20270;-60
2022/01/18 08:33:00;;;;;;;5.97;2.20;;;-1.10;99.90;;;;;;4157655;28;20271;-61
2022/01/18 08:35:02;;;;;;;7.73;2.53;;;-1.10;99.90;;;;;;4157643;28;21025;-61
2022/01/18 08:37:03;;;;;;;8.27;3.30;;;-1.10;99.90;;;;;;4144411;28;20715;-55
2022/01/18 08:39:05;;;;;;;5.90;2.87;;;-1.10;99.90;;;;;;4125090;28;20318;-55
2022/01/18 08:41:07;;;;;;;7.03;2.93;;;-1.10;99.90;;;;;;4126186;28;20318;-54
2022/01/18 08:43:09;;;;;;;8.17;3.47;;;-1.10;99.90;;;;;;4126701;28;20676;-59
2022/01/18 08:45:10;;;;;;;8.77;3.40;;;-1.00;99.90;;;;;;4140413;28;21051;-58
2022/01/18 08:47:13;;;;;;;10.07;2.80;;;-1.00;99.90;;;;;;4141036;28;20338;-58
2022/01/18 08:49:14;;;;;;;8.53;3.60;;;-1.00;99.90;;;;;;4141738;28;20267;-56
2022/01/18 08:51:16;;;;;;;8.43;3.40;;;-0.90;99.90;;;;;;4141229;28;20345;-53
2022/01/18 08:53:17;;;;;;;7.83;2.90;;;-0.90;99.90;;;;;;4140687;28;20283;-58
2022/01/18 08:55:20;;;;;;;8.87;3.10;;;-0.90;99.90;;;;;;4141598;28;21163;-57
2022/01/18 08:57:21;;;;;;;5.17;2.37;;;-0.90;99.90;;;;;;4140938;28;20334;-55
2022/01/18 08:59:23;;;;;;;9.27;3.07;;;-0.80;99.90;;;;;;4140579;28;20727;-56
2022/01/18 09:01:24;;;;;;;5.63;2.50;;;-0.80;99.90;;;;;;4141236;28;20268;-56
2022/01/18 09:03:25;;;;;;;9.77;2.87;;;-0.80;99.90;;;;;;4140243;28;20275;-54
2022/01/18 09:05:26;;;;;;;4.23;1.80;;;-0.70;99.90;;;;;;4141193;28;20279;-58
2022/01/18 09:07:27;;;;;;;3.83;1.73;;;-0.60;99.90;;;;;;4141709;28;20667;-58
2022/01/18 09:09:28;;;;;;;5.33;2.10;;;-0.60;99.90;;;;;;4140509;28;20286;-57
2022/01/18 09:11:31;;;;;;;7.87;2.23;;;-0.50;99.90;;;;;;4141182;28;20263;-56
2022/01/18 09:13:34;;;;;;;3.90;1.40;;;-0.50;99.90;;;;;;4140986;28;20857;-58
2022/01/18 09:15:35;;;;;;;8.47;2.10;;;-0.40;99.90;;;;;;4140729;28;20272;-57
2022/01/18 09:17:41;;;;;;;4.80;1.57;;;-0.40;99.90;;;;;;4140833;28;20280;-56
2022/01/18 09:19:42;;;;;;;8.67;1.80;;;-0.30;99.90;;;;;;4140669;28;20337;-58
2022/01/18 09:21:47;;;;;;;6.07;1.90;;;-0.20;99.90;;;;;;4140323;28;20322;-59
2022/01/18 09:23:48;;;;;;;5.90;1.67;;;-0.20;99.90;;;;;;4140395;28;20268;-57
2022/01/18 09:25:49;;;;;;;3.33;1.20;;;-0.20;99.90;;;;;;4140683;28;21555;-59
2022/01/18 09:27:51;;;;;;;8.47;1.20;;;-0.10;99.90;;;;;;4141177;28;21068;-59
2022/01/18 09:29:52;;;;;;;6.17;1.67;;;-0.10;99.90;;;;;;4140797;28;20275;-58
2022/01/18 09:31:53;;;;;;;15.53;5.40;;;-0.10;99.90;;;;;;4140886;28;20287;-57
2022/01/18 09:33:55;;;;;;;10.13;2.80;;;-0.10;99.90;;;;;;4140548;28;20295;-59
2022/01/18 09:35:56;;;;;;;4.20;2.00;;;-0.10;99.90;;;;;;4139987;28;20283;-59
2022/01/18 09:38:00;;;;;;;9.63;3.40;;;-0.10;99.90;;;;;;4140926;28;20271;-60
2022/01/18 09:40:02;;;;;;;7.23;2.30;;;-0.10;99.90;;;;;;4140302;28;20341;-58
2022/01/18 09:42:05;;;;;;;5.87;2.77;;;-0.10;99.90;;;;;;4140814;28;20272;-59
2022/01/18 09:44:07;;;;;;;8.07;2.90;;;0.00;99.90;;;;;;4140337;28;20272;-57
2022/01/18 09:46:09;;;;;;;4.87;1.90;;;0.10;99.90;;;;;;4140677;28;20601;-57
2022/01/18 09:48:11;;;;;;;2.80;1.03;;;0.20;99.90;;;;;;4140356;28;20273;-59
2022/01/18 09:50:16;;;;;;;5.63;1.57;;;0.20;99.90;;;;;;4140328;28;20314;-59
2022/01/18 09:52:17;;;;;;;3.43;1.57;;;0.30;99.90;;;;;;4139916;28;20675;-57
2022/01/18 09:54:18;;;;;;;6.43;2.07;;;0.40;99.90;;;;;;4138965;28;20288;-58
2022/01/18 09:56:19;;;;;;;1.73;1.30;;;0.50;99.90;;;;;;4140087;28;20267;-63
2022/01/18 09:58:21;;;;;;;2.83;1.40;;;0.50;99.90;;;;;;4140352;28;20280;-60
2022/01/18 10:00:25;;;;;;;5.63;1.50;;;0.50;99.90;;;;;;4139613;28;20271;-58
2022/01/18 10:02:27;;;;;;;4.90;1.60;;;0.40;99.90;;;;;;4140192;28;20326;-58
2022/01/18 10:04:31;;;;;;;6.20;2.20;;;0.40;99.90;;;;;;4139888;28;20255;-54
2022/01/18 10:06:33;;;;;;;5.57;2.20;;;0.40;99.90;;;;;;4139979;28;20271;-58
2022/01/18 10:08:40;;;;;;;10.93;4.07;;;0.40;99.90;;;;;;4139979;28;20267;-59
2022/01/18 10:10:47;;;;;;;6.93;1.57;;;0.50;99.90;;;;;;4139976;28;20329;-54
2022/01/18 10:12:55;;;;;;;5.20;2.47;;;0.60;99.90;;;;;;4140573;28;20679;-58
2022/01/18 10:14:58;;;;;;;8.13;1.70;;;0.60;99.90;;;;;;4139613;28;20800;-57
2022/01/18 10:17:00;;;;;;;4.97;1.23;;;0.60;99.90;;;;;;4140525;28;20346;-57
2022/01/18 10:19:06;;;;;;;4.50;1.00;;;0.60;99.90;;;;;;4139609;28;21074;-57
2022/01/18 10:21:08;;;;;;;5.33;1.20;;;0.60;99.90;;;;;;4140246;28;20268;-57
2022/01/18 10:23:20;;;;;;;4.30;1.00;;;0.70;99.90;;;;;;4139492;28;20338;-57
2022/01/18 10:25:23;;;;;;;4.03;1.30;;;0.80;99.90;;;;;;4140840;28;20699;-56
2022/01/18 10:27:35;;;;;;;4.60;1.07;;;0.80;99.90;;;;;;4139030;28;20287;-58
2022/01/18 10:29:43;;;;;;;2.93;0.87;;;0.80;99.90;;;;;;4140626;28;20279;-57
2022/01/18 10:34:10;;;;;;;3.27;1.00;;;0.80;99.90;;;;;;4139736;28;20341;-58
2022/01/18 10:36:17;;;;;;;5.40;1.50;;;0.90;99.90;;;;;;4138935;28;20275;-58
2022/01/18 10:38:18;;;;;;;4.17;0.90;;;0.90;99.90;;;;;;4140266;28;20790;-60
2022/01/18 10:40:19;;;;;;;4.53;1.07;;;0.90;99.90;;;;;;4138750;28;20259;-57
2022/01/18 10:42:36;;;;;;;3.57;1.63;;;0.90;99.90;;;;;;4140111;28;20267;-58
2022/01/18 10:44:37;;;;;;;2.27;0.60;;;0.90;99.90;;;;;;4139694;28;20264;-58
2022/01/18 10:46:53;;;;;;;3.13;0.90;;;0.90;99.90;;;;;;4139973;28;20271;-57
2022/01/18 10:48:54;;;;;;;3.43;1.07;;;0.90;99.90;;;;;;4139371;28;20310;-56
2022/01/18 10:50:57;;;;;;;4.27;0.97;;;0.90;99.90;;;;;;4139934;28;20306;-57
2022/01/18 10:53:17;;;;;;;6.17;1.53;;;0.90;99.90;;;;;;4138798;28;20264;-57
2022/01/18 10:55:20;;;;;;;7.63;1.55;;;0.90;99.90;;;;;;4122879;28;20338;-58
2022/01/18 10:57:41;;;;;;;5.03;1.20;;;0.90;99.90;;;;;;4122710;28;20031;-53
2022/01/18 10:59:43;;;;;;;5.35;1.17;;;0.90;99.90;;;;;;4123655;28;21122;-58
2022/01/18 11:01:44;;;;;;;2.40;1.30;;;0.90;99.90;;;;;;4122782;28;20077;-56
2022/01/18 11:04:09;;;;;;;3.23;1.03;;;0.90;99.90;;;;;;4123519;28;20776;-58
2022/01/18 11:06:16;;;;;;;4.87;1.07;;;0.90;99.90;;;;;;4124705;28;20268;-57
2022/01/18 11:08:18;;;;;;;3.93;1.07;;;0.90;99.90;;;;;;4133583;28;20779;-60
2022/01/18 11:10:22;;;;;;;2.60;0.90;;;0.90;99.90;;;;;;4135965;28;20286;-61
2022/01/18 11:12:27;;;;;;;4.83;1.73;;;0.90;99.90;;;;;;4144082;28;20271;-57
2022/01/18 11:14:31;;;;;;;4.10;0.93;;;0.90;99.90;;;;;;4143309;28;20416;-58
2022/01/18 11:16:36;;;;;;;10.57;1.80;;;0.80;99.90;;;;;;4136377;28;20330;-58
2022/01/18 11:18:37;;;;;;;5.57;1.43;;;0.80;99.90;;;;;;4140500;28;20362;-56
2022/01/18 11:20:42;;;;;;;11.03;3.80;;;0.80;99.90;;;;;;4137901;28;20691;-59
2022/01/18 11:22:44;;;;;;;5.30;1.60;;;0.80;99.90;;;;;;4141741;28;20279;-59
2022/01/18 11:24:48;;;;;;;5.70;1.37;;;0.80;99.90;;;;;;4142413;28;20667;-58
2022/01/18 11:26:49;;;;;;;4.17;1.53;;;0.90;99.90;;;;;;4143212;28;20309;-56
2022/01/18 11:28:56;;;;;;;2.33;1.20;;;0.90;99.90;;;;;;4143776;28;20322;-59
2022/01/18 11:30:57;;;;;;;7.13;1.60;;;0.90;99.90;;;;;;4138709;28;20739;-60
2022/01/18 11:33:00;;;;;;;3.30;1.70;;;0.80;99.90;;;;;;4139613;28;20770;-60
2022/01/18 11:35:04;;;;;;;6.00;1.67;;;0.80;99.90;;;;;;4139542;28;20402;-59
2022/01/18 11:37:17;;;;;;;3.97;1.40;;;0.80;99.90;;;;;;4139598;28;20671;-62
2022/01/18 11:39:20;;;;;;;4.43;1.77;;;0.80;99.90;;;;;;4139768;28;21113;-59
2022/01/18 11:41:28;;;;;;;10.23;1.63;;;0.80;99.90;;;;;;4139466;28;20279;-61